Miami, Florida
Traffic Map
Current Weather Conditions
Miami, Florida
Few Clouds
Few Clouds
26°
Feels Like: 26°
Wind Chill: 26° Ceiling: Unl
Heat Index: 26° Visibility: 10mi
Dew Point: 10° Wind: 10mph
Humidity: 36% Direction: 120° (ESE)
Pressure: 30.1in Gusts: 17mph
Raw Report DataKMIA 311953Z 12009G15KT 10SM FEW050 FEW300 26/10 A3010 RMK AO2 SLP192 T02610100
Traffic Incident Summary
Active as of:
Severity:
Category:
InformationThere was an issue retrieving the traffic information for this location. Please try a different location or try again shortly.
Advertisements
Track Severe Weather on mobile